createdAt,value
2023-03-19T00:00:32.080Z,101431.25
2023-03-19T00:03:00.330Z,101438.38
2023-03-19T00:05:28.335Z,101438.47
2023-03-19T00:07:56.927Z,101446.47
2023-03-19T00:10:24.898Z,101454.50
2023-03-19T00:12:54.624Z,101459.84
2023-03-19T00:15:22.786Z,101449.25
2023-03-19T00:17:50.671Z,101454.63
2023-03-19T00:20:19.912Z,101462.63
2023-03-19T00:22:48.742Z,101467.94
2023-03-19T00:25:16.694Z,101474.22
2023-03-19T00:27:44.702Z,101474.28
2023-03-19T00:30:15.072Z,101474.38
2023-03-19T00:32:42.945Z,101484.19
2023-03-19T00:35:11.218Z,101493.84
2023-03-19T00:37:39.061Z,101504.47
2023-03-19T00:40:08.788Z,101500.94
2023-03-19T00:42:36.722Z,101507.19
2023-03-19T00:45:04.911Z,101497.38
2023-03-19T00:47:34.133Z,101496.66
2023-03-19T00:50:02.010Z,101479.06
2023-03-19T00:52:29.896Z,101488.88
2023-03-19T00:54:57.739Z,101498.69
2023-03-19T00:57:25.742Z,101513.75
2023-03-19T00:59:53.730Z,101506.69
2023-03-19T01:02:21.616Z,101498.94
2023-03-19T01:04:51.111Z,101497.06
2023-03-19T01:07:18.971Z,101501.66
2023-03-19T01:09:46.816Z,101506.91
2023-03-19T01:12:14.711Z,101502.56
2023-03-19T01:14:42.581Z,101500.91
2023-03-19T01:17:10.467Z,101504.47
2023-03-19T01:19:38.333Z,101498.47
2023-03-19T01:22:07.712Z,101524.13
2023-03-19T01:24:35.607Z,101526.81
2023-03-19T01:27:03.518Z,101532.09
2023-03-19T01:29:31.509Z,101520.66
2023-03-19T01:31:59.397Z,101448.19
2023-03-19T01:34:27.319Z,101503.78
2023-03-19T01:36:55.307Z,101498.59
2023-03-19T01:39:24.531Z,101499.47
2023-03-19T01:41:52.624Z,101498.72
2023-03-19T01:44:25.218Z,101519.03
2023-03-19T01:46:53.287Z,101507.59
2023-03-19T01:49:21.546Z,101512.00
2023-03-19T01:51:49.424Z,101514.72
2023-03-19T01:54:19.995Z,101498.03
2023-03-19T01:56:50.542Z,101508.66
2023-03-19T01:59:21.334Z,101506.06
2023-03-19T02:01:51.781Z,101514.94
2023-03-19T02:04:19.722Z,101513.50
2023-03-19T02:06:47.607Z,101539.75
2023-03-19T02:09:15.613Z,101537.88
2023-03-19T02:11:43.486Z,101528.81
2023-03-19T02:14:13.374Z,101529.47
2023-03-19T02:16:41.243Z,101529.31
2023-03-19T02:19:10.912Z,101537.16
2023-03-19T02:21:38.765Z,101531.72
2023-03-19T02:24:10.063Z,101517.13
2023-03-19T02:26:39.298Z,101547.09
2023-03-19T02:29:07.481Z,101541.16
2023-03-19T02:31:35.493Z,101529.91
2023-03-19T02:34:04.181Z,101547.59
2023-03-19T02:36:34.142Z,101545.94
2023-03-19T02:39:02.324Z,101552.16
2023-03-19T02:41:30.568Z,101561.91
2023-03-19T02:43:59.811Z,101563.69
2023-03-19T02:46:27.830Z,101569.94
2023-03-19T02:48:55.746Z,101559.31
2023-03-19T02:51:23.604Z,101552.19
2023-03-19T02:53:51.514Z,101552.34
2023-03-19T02:56:19.390Z,101562.09
2023-03-19T02:58:47.247Z,101555.16
2023-03-19T03:01:16.692Z,101557.84
2023-03-19T03:03:44.634Z,101557.91
2023-03-19T03:06:12.491Z,101560.63
2023-03-19T03:08:40.621Z,101555.38
2023-03-19T03:11:09.308Z,101553.66
2023-03-19T03:13:37.290Z,101564.31
2023-03-19T03:16:05.463Z,101559.09
2023-03-19T03:18:34.782Z,101562.69
2023-03-19T03:21:03.593Z,101560.09
2023-03-19T03:23:31.437Z,101564.56
2023-03-19T03:25:59.315Z,101565.47
2023-03-19T03:28:27.174Z,101510.69
2023-03-19T03:30:59.791Z,101581.34
2023-03-19T03:33:27.620Z,101578.69
2023-03-19T03:35:57.257Z,101579.69
2023-03-19T03:38:25.171Z,101590.13
2023-03-19T03:40:53.523Z,101590.13
2023-03-19T03:43:21.551Z,101589.25
2023-03-19T03:45:49.897Z,101587.47
2023-03-19T03:48:17.932Z,101584.81
2023-03-19T03:50:49.249Z,101591.00
2023-03-19T03:53:18.552Z,101594.59
2023-03-19T03:55:46.536Z,101592.91
2023-03-19T03:58:14.461Z,101593.84
2023-03-19T04:00:42.351Z,101590.41
2023-03-19T04:03:10.406Z,101596.59
2023-03-19T04:05:38.755Z,101596.66
2023-03-19T04:08:07.198Z,101594.06
2023-03-19T04:10:36.856Z,101593.22
2023-03-19T04:13:04.833Z,101601.19
2023-03-19T04:15:32.716Z,101592.53
2023-03-19T04:18:00.596Z,101618.00
2023-03-19T04:20:28.457Z,101625.13
2023-03-19T04:22:56.406Z,101637.41
2023-03-19T04:25:24.971Z,101633.84
2023-03-19T04:27:54.213Z,101633.84
2023-03-19T04:30:22.126Z,101633.78
2023-03-19T04:32:50.044Z,101638.25
2023-03-19T04:35:19.151Z,101636.50
2023-03-19T04:37:48.805Z,101639.16
2023-03-19T04:40:17.128Z,101636.56
2023-03-19T04:42:45.738Z,101641.81
2023-03-19T04:45:14.990Z,101650.66
2023-03-19T04:47:42.862Z,101648.91
2023-03-19T04:50:12.862Z,101660.38
2023-03-19T04:52:40.741Z,101661.28
2023-03-19T04:55:09.368Z,101678.91
2023-03-19T04:57:37.311Z,101691.13
2023-03-19T05:00:06.948Z,101676.97
2023-03-19T05:02:36.508Z,101681.34
2023-03-19T05:05:04.536Z,101686.50
2023-03-19T05:07:32.476Z,101675.06
2023-03-19T05:10:00.395Z,101683.63
2023-03-19T05:12:28.276Z,101680.84
2023-03-19T05:14:56.126Z,101663.38
2023-03-19T05:17:23.970Z,101681.66
2023-03-19T05:19:53.622Z,101694.91
2023-03-19T05:22:21.530Z,101694.84
2023-03-19T05:24:49.451Z,101692.19
2023-03-19T05:27:17.340Z,101696.66
2023-03-19T05:29:45.248Z,101701.19
2023-03-19T05:32:13.752Z,101678.81
2023-03-19T05:34:41.788Z,101715.56
2023-03-19T05:37:11.154Z,101715.47
2023-03-19T05:39:39.008Z,101713.81
2023-03-19T05:42:07.486Z,101716.56
2023-03-19T05:44:35.411Z,101724.66
2023-03-19T05:47:03.276Z,101726.50
2023-03-19T05:49:31.175Z,101716.84
2023-03-19T05:51:59.162Z,101716.06
2023-03-19T05:54:28.399Z,101712.63
2023-03-19T05:56:56.343Z,101734.63
2023-03-19T05:59:24.256Z,101727.50
2023-03-19T06:01:52.274Z,101716.91
2023-03-19T06:04:20.473Z,101717.84
2023-03-19T06:06:48.400Z,101718.72
2023-03-19T06:09:16.341Z,101716.16
2023-03-19T06:11:45.623Z,101727.63
2023-03-19T06:14:13.738Z,101742.69
2023-03-19T06:16:41.599Z,101743.63
2023-03-19T06:19:09.449Z,101747.16
2023-03-19T06:21:37.335Z,101736.56
2023-03-19T06:24:05.450Z,101739.25
2023-03-19T06:26:33.324Z,101742.81
2023-03-19T06:29:02.580Z,101761.41
2023-03-19T06:31:30.530Z,101710.88
2023-03-19T06:33:58.442Z,101752.56
2023-03-19T06:36:26.393Z,101747.31
2023-03-19T06:38:54.744Z,101735.91
2023-03-19T06:41:22.707Z,101750.97
2023-03-19T06:43:50.671Z,101754.53
2023-03-19T06:46:20.360Z,101737.78
2023-03-19T06:48:48.312Z,101743.09
2023-03-19T06:51:16.167Z,101764.31
2023-03-19T06:53:44.027Z,101774.03
2023-03-19T06:56:11.922Z,101749.22
2023-03-19T06:58:39.828Z,101735.09
2023-03-19T07:01:07.737Z,101749.13
2023-03-19T07:03:37.010Z,101773.78
2023-03-19T07:06:05.138Z,101790.50
2023-03-19T07:08:33.007Z,101770.06
2023-03-19T07:11:05.228Z,101759.34
2023-03-19T07:13:33.264Z,101749.66
2023-03-19T07:16:01.204Z,101758.47
2023-03-19T07:18:29.076Z,101771.63
2023-03-19T07:20:58.339Z,101777.75
2023-03-19T07:23:26.180Z,101796.13
2023-03-19T07:25:54.091Z,101786.25
2023-03-19T07:28:21.942Z,101770.16
2023-03-19T07:30:49.779Z,101778.91
2023-03-19T07:33:17.856Z,101796.56
2023-03-19T07:35:45.912Z,101809.72
2023-03-19T07:38:16.174Z,101798.09
2023-03-19T07:40:54.944Z,101787.25
2023-03-19T07:43:29.032Z,101786.31
2023-03-19T07:45:56.960Z,101797.72
2023-03-19T07:48:24.845Z,101792.22
2023-03-19T07:50:52.757Z,101782.31
2023-03-19T07:53:22.064Z,101790.22
2023-03-19T07:55:50.614Z,101808.72
2023-03-19T07:58:18.509Z,101822.56
2023-03-19T08:00:46.364Z,101821.41
2023-03-19T08:03:14.492Z,101788.66
2023-03-19T08:05:42.538Z,101792.88
2023-03-19T08:08:10.513Z,101813.97
2023-03-19T08:10:39.943Z,101824.44
2023-03-19T08:13:07.984Z,101822.47
2023-03-19T08:15:35.941Z,101817.84
2023-03-19T08:18:05.049Z,101832.81
2023-03-19T08:20:33.496Z,101842.38
2023-03-19T08:23:01.602Z,101848.09
2023-03-19T08:25:32.554Z,101838.66
2023-03-19T08:28:02.037Z,101824.06
2023-03-19T08:30:30.233Z,101853.53
2023-03-19T08:32:58.186Z,101847.03
2023-03-19T08:35:27.482Z,101850.72
2023-03-19T08:37:55.748Z,101854.59
2023-03-19T08:40:23.952Z,101876.16
2023-03-19T08:42:52.040Z,101886.06
2023-03-19T08:45:21.911Z,101875.41
2023-03-19T08:47:49.897Z,101862.16
2023-03-19T08:50:18.170Z,101857.72
2023-03-19T08:52:46.687Z,101870.97
2023-03-19T08:55:14.699Z,101892.91
2023-03-19T08:57:42.946Z,101879.53
2023-03-19T09:00:12.539Z,101879.31
2023-03-19T09:02:41.782Z,101888.00
2023-03-19T09:05:10.572Z,101876.50
2023-03-19T09:07:38.466Z,101863.47
2023-03-19T09:10:07.560Z,101883.84
2023-03-19T09:12:35.650Z,101894.56
2023-03-19T09:15:04.528Z,101903.28
2023-03-19T09:17:32.430Z,101888.06
2023-03-19T09:20:01.679Z,101876.50
2023-03-19T09:22:29.591Z,101887.94
2023-03-19T09:24:57.480Z,101904.72
2023-03-19T09:27:25.432Z,101907.25
2023-03-19T09:29:53.303Z,101897.44
2023-03-19T09:32:21.702Z,101893.75
2023-03-19T09:34:49.580Z,101878.78
2023-03-19T09:37:19.183Z,101901.75
2023-03-19T09:39:47.061Z,101895.19
2023-03-19T09:42:26.906Z,101880.97
2023-03-19T09:44:55.188Z,101898.53
2023-03-19T09:47:27.265Z,101894.81
2023-03-19T09:49:57.959Z,101918.78
2023-03-19T09:52:36.142Z,101935.63
2023-03-19T09:55:09.168Z,101911.69
2023-03-19T09:57:38.184Z,101907.13
2023-03-19T10:00:14.857Z,101904.28
2023-03-19T10:02:43.524Z,101924.53
2023-03-19T10:05:17.155Z,101937.41
2023-03-19T10:08:03.136Z,101928.09
2023-03-19T10:10:38.338Z,101914.25
2023-03-19T10:13:10.626Z,101919.56
2023-03-19T10:15:39.624Z,101934.66
2023-03-19T10:18:09.696Z,101935.47
2023-03-19T10:20:43.442Z,101915.84
2023-03-19T10:23:27.555Z,101922.13
2023-03-19T10:25:56.512Z,101918.09
2023-03-19T10:28:24.431Z,101929.13
2023-03-19T10:30:57.071Z,101949.81
2023-03-19T10:33:27.421Z,101947.09
2023-03-19T10:35:58.712Z,101941.41
2023-03-19T10:38:28.121Z,101924.69
2023-03-19T10:41:06.073Z,101922.38
2023-03-19T10:43:36.024Z,101931.28
2023-03-19T10:46:04.001Z,101946.34
2023-03-19T10:48:33.509Z,101930.28
2023-03-19T10:51:02.341Z,101930.03
2023-03-19T10:53:33.679Z,101933.34
2023-03-19T10:56:03.536Z,101938.44
2023-03-19T10:58:32.250Z,101940.84
2023-03-19T11:01:04.513Z,101923.72
2023-03-19T11:03:33.572Z,101926.94
2023-03-19T11:06:17.244Z,101914.13
2023-03-19T11:08:56.685Z,101949.63
2023-03-19T11:11:26.288Z,101935.38
2023-03-19T11:13:54.345Z,101943.16
2023-03-19T11:16:22.380Z,101945.69
2023-03-19T11:18:50.587Z,101938.56
2023-03-19T11:21:26.333Z,101930.94
2023-03-19T11:24:01.208Z,101949.56
2023-03-19T11:26:29.703Z,101941.09
2023-03-19T11:29:02.721Z,101941.75
2023-03-19T11:31:34.157Z,101944.69
2023-03-19T11:34:12.947Z,101961.13
2023-03-19T11:36:43.491Z,101945.41
2023-03-19T11:39:20.203Z,101948.59
2023-03-19T11:42:09.005Z,101944.09
2023-03-19T11:44:40.261Z,101943.25
2023-03-19T11:47:24.596Z,101938.38
2023-03-19T11:50:02.757Z,101934.44
2023-03-19T11:52:33.512Z,101932.22
2023-03-19T11:55:11.757Z,101942.97
2023-03-19T11:57:50.255Z,101947.47
2023-03-19T12:00:25.800Z,101953.47
2023-03-19T12:03:16.383Z,101943.53
2023-03-19T12:05:49.374Z,101939.19
2023-03-19T12:08:22.696Z,101955.69
2023-03-19T12:11:00.252Z,101956.50
2023-03-19T12:13:38.162Z,101961.78
2023-03-19T12:16:11.400Z,101955.03
2023-03-19T12:18:49.660Z,101953.47
2023-03-19T12:21:19.793Z,101967.34
2023-03-19T12:23:56.047Z,101966.19
2023-03-19T12:26:27.289Z,101946.22
2023-03-19T12:28:57.597Z,101964.13
2023-03-19T12:32:05.390Z,101969.59
2023-03-19T12:34:36.099Z,101974.34
2023-03-19T12:37:10.079Z,101959.72
2023-03-19T12:39:39.458Z,101980.28
2023-03-19T12:42:08.897Z,101950.88
2023-03-19T12:44:38.681Z,101968.25
2023-03-19T12:47:10.039Z,101976.63
2023-03-19T12:49:39.147Z,101962.41
2023-03-19T12:52:11.584Z,101964.78
2023-03-19T12:54:40.822Z,101958.38
2023-03-19T12:57:11.905Z,101961.53
2023-03-19T12:59:41.608Z,101964.53
2023-03-19T13:02:13.703Z,101946.72
2023-03-19T13:04:43.616Z,101954.88
2023-03-19T13:07:14.449Z,101953.94
2023-03-19T13:09:47.667Z,101951.00
2023-03-19T13:12:18.901Z,101965.59
2023-03-19T13:14:51.254Z,101952.81
2023-03-19T13:17:23.032Z,101964.25
2023-03-19T13:19:56.580Z,101953.47
2023-03-19T13:22:25.473Z,101956.06
2023-03-19T13:24:56.372Z,101948.78
2023-03-19T13:27:33.045Z,101937.34
2023-03-19T13:30:04.120Z,101952.00
2023-03-19T13:32:40.885Z,101950.22
2023-03-19T13:35:36.478Z,101931.69
2023-03-19T13:38:13.238Z,101943.50
2023-03-19T13:40:43.902Z,101921.78
2023-03-19T13:43:49.244Z,101931.75
2023-03-19T13:46:39.922Z,101918.56
2023-03-19T13:49:26.730Z,101933.06
2023-03-19T13:52:01.498Z,101927.28
2023-03-19T13:54:37.857Z,101925.25
2023-03-19T13:57:17.093Z,101932.97
2023-03-19T13:59:46.764Z,101921.53
2023-03-19T14:02:59.004Z,101914.88
2023-03-19T14:05:34.541Z,101928.84
2023-03-19T14:08:02.475Z,101929.41
2023-03-19T14:10:30.779Z,101916.91
2023-03-19T14:13:08.125Z,101932.97
2023-03-19T14:15:36.864Z,101918.00
2023-03-19T14:18:06.283Z,101927.81
2023-03-19T14:20:40.718Z,101921.84
2023-03-19T14:23:23.518Z,101931.78
2023-03-19T14:26:01.381Z,101930.00
2023-03-19T14:28:36.359Z,101919.53
2023-03-19T14:31:07.429Z,101903.09
2023-03-19T14:33:41.277Z,101908.22
2023-03-19T14:36:13.755Z,101911.03
2023-03-19T14:38:44.520Z,101921.50
2023-03-19T14:41:15.770Z,101928.63
2023-03-19T14:43:57.234Z,101932.75
2023-03-19T14:46:26.899Z,101934.38
2023-03-19T14:49:16.767Z,101926.09
2023-03-19T14:51:59.042Z,101934.06
2023-03-19T14:54:33.367Z,101925.94
2023-03-19T14:57:07.700Z,101920.91
2023-03-19T14:59:39.466Z,101924.41
2023-03-19T15:02:07.750Z,101920.38
2023-03-19T15:04:35.918Z,101917.44
2023-03-19T15:07:06.032Z,101918.06
2023-03-19T15:09:34.282Z,101919.81
2023-03-19T15:12:33.875Z,101920.72
2023-03-19T15:15:38.655Z,101908.78
2023-03-19T15:18:10.343Z,101931.50
2023-03-19T15:20:39.342Z,101920.97
2023-03-19T15:23:20.004Z,101912.19
2023-03-19T15:25:56.902Z,101926.28
2023-03-19T15:28:25.524Z,101925.22
2023-03-19T15:31:05.728Z,101929.41
2023-03-19T15:33:43.408Z,101886.38
2023-03-19T15:36:16.414Z,101931.84
2023-03-19T15:38:47.021Z,101928.63
2023-03-19T15:41:14.925Z,101938.66
2023-03-19T15:43:42.875Z,101940.81
2023-03-19T15:46:12.345Z,101932.94
2023-03-19T15:48:42.403Z,101931.97
2023-03-19T15:51:10.411Z,101891.34
2023-03-19T15:53:38.355Z,101931.47
2023-03-19T15:56:08.580Z,101934.28
2023-03-19T15:58:39.822Z,101913.41
2023-03-19T16:01:08.522Z,101931.94
2023-03-19T16:03:38.889Z,101918.16
2023-03-19T16:06:07.895Z,101913.84
2023-03-19T16:08:36.244Z,101927.84
2023-03-19T16:11:29.553Z,101922.69
2023-03-19T16:13:58.757Z,101917.41
2023-03-19T16:16:27.485Z,101927.31
2023-03-19T16:18:56.287Z,101916.75
2023-03-19T16:21:25.591Z,101926.66
2023-03-19T16:23:56.521Z,101918.72
2023-03-19T16:26:26.022Z,101922.41
2023-03-19T16:29:00.899Z,101923.78
2023-03-19T16:31:32.072Z,101933.94
2023-03-19T16:34:00.471Z,101930.66
2023-03-19T16:36:32.780Z,101926.50
2023-03-19T16:39:15.486Z,101941.59
2023-03-19T16:41:43.413Z,101944.31
2023-03-19T16:44:17.643Z,101939.97
2023-03-19T16:46:45.720Z,101934.97
2023-03-19T16:49:13.629Z,101941.38
2023-03-19T16:51:41.573Z,101946.84
2023-03-19T16:54:11.092Z,101908.38
2023-03-19T16:56:39.154Z,101924.22
2023-03-19T16:59:07.291Z,101938.22
2023-03-19T17:01:36.602Z,101935.72
2023-03-19T17:04:09.916Z,101945.56
2023-03-19T17:06:37.917Z,101934.03
2023-03-19T17:09:06.513Z,101931.47
2023-03-19T17:11:36.965Z,101897.69
2023-03-19T17:14:07.110Z,101934.22
2023-03-19T17:16:36.567Z,101941.31
2023-03-19T17:19:07.225Z,101935.94
2023-03-19T17:21:35.925Z,101943.78
2023-03-19T17:24:05.542Z,101937.72
2023-03-19T17:26:33.458Z,101935.94
2023-03-19T17:29:01.960Z,101924.44
2023-03-19T17:31:30.639Z,101933.88
2023-03-19T17:34:01.310Z,101926.03
2023-03-19T17:36:29.241Z,101943.38
2023-03-19T17:38:57.146Z,101962.06
2023-03-19T17:41:25.086Z,101963.94
2023-03-19T17:43:53.045Z,101959.16
2023-03-19T17:46:22.296Z,101990.13
2023-03-19T17:48:50.940Z,102015.06
2023-03-19T17:51:20.906Z,102038.31
2023-03-19T17:53:49.906Z,102024.38
2023-03-19T17:56:19.264Z,102016.19
2023-03-19T17:58:50.178Z,101977.13
2023-03-19T18:01:19.377Z,101952.97
2023-03-19T18:03:47.429Z,101959.16
2023-03-19T18:06:17.164Z,101950.13
2023-03-19T18:08:46.905Z,101936.75
2023-03-19T18:11:14.812Z,101935.78
2023-03-19T18:13:42.900Z,101933.88
2023-03-19T18:16:15.655Z,101920.59
2023-03-19T18:18:43.567Z,101921.44
2023-03-19T18:21:12.479Z,101930.38
2023-03-19T18:23:43.151Z,101915.63
2023-03-19T18:26:12.489Z,101906.69
2023-03-19T18:28:40.511Z,101892.69
2023-03-19T18:31:12.864Z,101907.72
2023-03-19T18:33:40.793Z,101916.69
2023-03-19T18:36:09.208Z,101923.81
2023-03-19T18:38:37.101Z,101915.78
2023-03-19T18:41:05.139Z,101914.69
2023-03-19T18:43:34.427Z,101905.78
2023-03-19T18:46:02.318Z,101907.41
2023-03-19T18:48:31.328Z,101906.41
2023-03-19T18:50:59.287Z,101911.69
2023-03-19T18:53:27.879Z,101902.03
2023-03-19T18:55:55.952Z,101905.56
2023-03-19T18:58:24.876Z,101892.53
2023-03-19T19:00:54.357Z,101897.72
2023-03-19T19:03:28.607Z,101906.41
2023-03-19T19:05:56.926Z,101896.59
2023-03-19T19:08:25.419Z,101898.38
2023-03-19T19:10:54.258Z,101895.69
2023-03-19T19:13:23.289Z,101899.22
2023-03-19T19:15:51.186Z,101885.94
2023-03-19T19:18:20.979Z,101886.75
2023-03-19T19:20:49.139Z,101887.66
2023-03-19T19:23:17.229Z,101894.69
2023-03-19T19:25:45.159Z,101900.75
2023-03-19T19:28:16.608Z,101891.13
2023-03-19T19:30:45.778Z,101901.66
2023-03-19T19:33:17.106Z,101902.44
2023-03-19T19:35:46.529Z,101902.44
2023-03-19T19:38:14.835Z,101897.09
2023-03-19T19:40:45.350Z,101901.63
2023-03-19T19:43:17.360Z,101906.94
2023-03-19T19:45:46.776Z,101906.03
2023-03-19T19:48:16.054Z,101912.25
2023-03-19T19:50:46.254Z,101894.63
2023-03-19T19:53:14.234Z,101912.19
2023-03-19T19:55:42.382Z,101909.66
2023-03-19T19:58:16.200Z,101910.44
2023-03-19T20:00:53.306Z,101917.47
2023-03-19T20:03:29.250Z,101914.66
2023-03-19T20:05:58.841Z,101914.63
2023-03-19T20:08:27.196Z,101919.97
2023-03-19T20:10:55.261Z,101926.09
2023-03-19T20:13:24.982Z,101927.91
2023-03-19T20:15:53.276Z,101924.34
2023-03-19T20:18:22.440Z,101923.47
2023-03-19T20:20:50.599Z,101918.97
2023-03-19T20:23:20.850Z,101923.38
2023-03-19T20:25:48.977Z,101917.16
2023-03-19T20:28:20.682Z,101919.91
2023-03-19T20:30:48.598Z,101924.28
2023-03-19T20:33:18.158Z,101931.28
2023-03-19T20:35:46.416Z,101925.00
2023-03-19T20:38:14.677Z,101932.09
2023-03-19T20:40:46.008Z,101935.53
2023-03-19T20:43:21.997Z,101940.00
2023-03-19T20:45:49.857Z,101932.06
2023-03-19T20:48:18.466Z,101937.44
2023-03-19T20:50:46.513Z,101925.00
2023-03-19T20:53:14.481Z,101921.31
2023-03-19T20:55:42.463Z,101929.31
2023-03-19T20:58:24.434Z,101923.13
2023-03-19T21:00:53.001Z,101930.19
2023-03-19T21:03:22.334Z,101931.97
2023-03-19T21:05:51.880Z,101935.47
2023-03-19T21:08:24.377Z,101930.09
2023-03-19T21:10:53.097Z,101916.78
2023-03-19T21:13:22.781Z,101903.47
2023-03-19T21:15:50.637Z,101915.81
2023-03-19T21:18:18.765Z,101921.97
2023-03-19T21:20:48.291Z,101923.75
2023-03-19T21:23:18.525Z,101913.22
2023-03-19T21:25:46.523Z,101920.34
2023-03-19T21:28:19.643Z,101899.94
2023-03-19T21:30:48.884Z,101900.78
2023-03-19T21:33:24.631Z,101889.31
2023-03-19T21:35:52.699Z,101884.03
2023-03-19T21:38:20.864Z,101889.38
2023-03-19T21:40:49.114Z,101877.88
2023-03-19T21:43:20.034Z,101877.00
2023-03-19T21:45:49.682Z,101873.44
2023-03-19T21:48:29.883Z,101870.69
2023-03-19T21:50:58.089Z,101838.50
2023-03-19T21:53:26.761Z,101874.19
2023-03-19T21:55:55.187Z,101868.94
2023-03-19T21:58:26.326Z,101864.50
2023-03-19T22:00:56.071Z,101858.19
2023-03-19T22:03:24.137Z,101859.06
2023-03-19T22:05:52.179Z,101865.28
2023-03-19T22:08:20.431Z,101866.09
2023-03-19T22:10:49.933Z,101865.13
2023-03-19T22:13:21.733Z,101860.59
2023-03-19T22:15:50.615Z,101858.84
2023-03-19T22:18:20.379Z,101856.16
2023-03-19T22:20:48.692Z,101860.63
2023-03-19T22:23:16.561Z,101856.09
2023-03-19T22:25:44.799Z,101847.28
2023-03-19T22:28:17.270Z,101848.94
2023-03-19T22:30:45.299Z,101848.22
2023-03-19T22:33:15.435Z,101843.72
2023-03-19T22:35:45.116Z,101848.09
2023-03-19T22:38:13.080Z,101833.94
2023-03-19T22:40:41.097Z,101819.97
2023-03-19T22:43:16.919Z,101824.28
2023-03-19T22:45:44.881Z,101830.38
2023-03-19T22:48:14.195Z,101832.16
2023-03-19T22:50:42.833Z,101834.00
2023-03-19T22:53:20.755Z,101819.97
2023-03-19T22:55:48.624Z,101843.66
2023-03-19T22:58:16.600Z,101835.59
2023-03-19T23:00:44.486Z,101837.41
2023-03-19T23:03:15.050Z,101834.75
2023-03-19T23:05:43.017Z,101831.19
2023-03-19T23:08:11.246Z,101831.94
2023-03-19T23:10:40.948Z,101830.13
2023-03-19T23:13:09.626Z,101835.38
2023-03-19T23:15:37.698Z,101835.31
2023-03-19T23:18:07.158Z,101829.06
2023-03-19T23:20:35.002Z,101833.44
2023-03-19T23:23:03.158Z,101831.59
2023-03-19T23:25:31.326Z,101829.81
2023-03-19T23:28:01.848Z,101831.56
2023-03-19T23:30:31.694Z,101833.28
2023-03-19T23:33:00.739Z,101830.47
2023-03-19T23:35:29.576Z,101831.28
2023-03-19T23:37:57.633Z,101832.22
2023-03-19T23:40:27.047Z,101830.47
2023-03-19T23:42:55.814Z,101831.44
2023-03-19T23:45:29.968Z,101822.59
2023-03-19T23:47:58.726Z,101821.75
2023-03-19T23:50:26.730Z,101824.41
2023-03-19T23:52:54.627Z,101781.09
2023-03-19T23:55:22.558Z,101821.88
2023-03-19T23:57:50.431Z,101815.66
